Time;durP1;ratioP1;P1;durP2;ratioP2;P2;SDS_P1;SDS_P2;PMS_P1;PMS_P2;Temp;Humidity;BMP_temperature;BMP_pressure;BME280_temperature;BME280_humidity;BME280_pressure;Samples;Min_cycle;Max_cycle;Signal;HPM_P1;HPM_P2
2023/03/17 00:01:50;;;;;;;10.15;3.17;;;12.10;99.90;;;;;;5020779;28;20103;-57
2023/03/17 00:04:20;;;;;;;9.55;2.20;;;12.10;99.90;;;;;;5017206;28;20095;-57
2023/03/17 00:06:47;;;;;;;7.90;2.65;;;12.10;99.90;;;;;;5024285;28;20056;-56
2023/03/17 00:09:15;;;;;;;9.50;2.47;;;12.10;99.90;;;;;;5017341;28;20045;-58
2023/03/17 00:11:43;;;;;;;13.18;3.15;;;12.10;99.90;;;;;;5024717;28;20493;-58
2023/03/17 00:14:09;;;;;;;10.98;3.00;;;12.10;99.90;;;;;;5020592;28;20056;-57
2023/03/17 00:16:37;;;;;;;9.32;2.55;;;12.10;99.90;;;;;;5022532;28;20144;-57
2023/03/17 00:19:05;;;;;;;8.82;2.47;;;12.10;99.90;;;;;;5004658;28;20132;-57
2023/03/17 00:21:33;;;;;;;9.55;2.30;;;12.10;99.90;;;;;;5006578;28;20037;-56
2023/03/17 00:24:01;;;;;;;10.02;2.83;;;12.10;99.90;;;;;;5023754;28;20057;-57
2023/03/17 00:26:27;;;;;;;11.60;3.58;;;12.10;99.90;;;;;;5023051;28;20053;-58
2023/03/17 00:28:54;;;;;;;10.50;2.78;;;12.10;99.90;;;;;;5006964;28;20133;-57
2023/03/17 00:31:26;;;;;;;9.88;2.63;;;12.10;99.90;;;;;;5018183;28;20073;-59
2023/03/17 00:33:52;;;;;;;12.85;4.82;;;12.10;99.90;;;;;;5024846;28;20041;-58
2023/03/17 00:36:24;;;;;;;9.40;2.47;;;12.10;99.90;;;;;;5020503;28;20054;-57
2023/03/17 00:38:51;;;;;;;7.13;2.25;;;12.10;99.90;;;;;;4976568;28;20077;-57
2023/03/17 00:41:18;;;;;;;11.88;3.70;;;12.10;99.90;;;;;;5019426;28;20136;-57
2023/03/17 00:43:45;;;;;;;12.43;2.67;;;12.10;99.90;;;;;;5010972;28;20057;-57
2023/03/17 00:46:17;;;;;;;10.27;3.08;;;12.20;99.90;;;;;;5019515;28;20068;-54
2023/03/17 00:48:44;;;;;;;16.90;3.00;;;12.20;99.90;;;;;;4994942;28;20046;-57
2023/03/17 00:51:11;;;;;;;12.57;3.08;;;12.10;99.90;;;;;;4999344;28;20543;-57
2023/03/17 00:53:38;;;;;;;15.63;4.63;;;12.20;99.90;;;;;;5027129;28;20045;-57
2023/03/17 00:56:13;;;;;;;13.20;3.45;;;12.20;99.90;;;;;;5019280;28;20053;-54
2023/03/17 00:58:40;;;;;;;12.07;3.72;;;12.20;99.90;;;;;;5002193;28;20049;-56
2023/03/17 01:01:07;;;;;;;7.25;2.50;;;12.20;99.90;;;;;;5005037;28;20037;-56
2023/03/17 01:03:34;;;;;;;14.45;3.22;;;12.20;99.90;;;;;;5030788;28;20049;-57
2023/03/17 01:06:01;;;;;;;15.70;2.22;;;12.20;99.90;;;;;;5023081;28;20393;-58
2023/03/17 01:08:29;;;;;;;12.35;3.45;;;12.20;99.90;;;;;;5005151;28;20042;-56
2023/03/17 01:10:56;;;;;;;12.18;3.05;;;12.20;99.90;;;;;;4998467;28;20463;-58
2023/03/17 01:13:23;;;;;;;9.65;2.95;;;12.20;99.90;;;;;;5022897;28;20042;-57
2023/03/17 01:15:50;;;;;;;17.00;2.85;;;12.20;99.90;;;;;;5015958;28;20066;-59
2023/03/17 01:18:19;;;;;;;18.33;4.15;;;12.20;99.90;;;;;;5023414;28;20124;-58
2023/03/17 01:20:47;;;;;;;8.45;2.42;;;12.30;99.90;;;;;;5008667;28;20041;-59
2023/03/17 01:23:14;;;;;;;12.35;2.65;;;12.30;99.90;;;;;;5024430;28;20122;-58
2023/03/17 01:25:41;;;;;;;10.57;3.00;;;12.30;99.90;;;;;;5029035;28;20060;-58
2023/03/17 01:28:13;;;;;;;13.15;2.90;;;12.30;99.90;;;;;;4998535;28;20336;-58
2023/03/17 01:30:39;;;;;;;9.63;3.47;;;12.30;99.90;;;;;;5013399;28;20042;-58
2023/03/17 01:33:08;;;;;;;10.73;3.08;;;12.30;99.90;;;;;;5017685;28;20046;-58
2023/03/17 01:35:35;;;;;;;11.85;2.95;;;12.20;99.90;;;;;;5027668;28;20077;-57
2023/03/17 01:38:02;;;;;;;12.00;3.47;;;12.20;99.90;;;;;;5016591;28;20050;-56
2023/03/17 01:40:32;;;;;;;15.40;3.17;;;12.30;99.90;;;;;;5026354;28;20052;-57
2023/03/17 01:43:12;;;;;;;9.40;3.90;;;12.20;99.90;;;;;;5023083;28;20057;-57
2023/03/17 01:46:13;;;;;;;15.13;3.15;;;12.20;99.90;;;;;;4997804;28;20446;-59
2023/03/17 01:49:00;;;;;;;14.40;3.25;;;12.20;99.90;;;;;;5015747;28;20136;-56
2023/03/17 01:51:37;;;;;;;12.95;3.40;;;12.20;99.90;;;;;;5016888;28;20512;-57
2023/03/17 01:54:10;;;;;;;10.05;3.25;;;12.20;99.90;;;;;;5007224;28;20080;-57
2023/03/17 01:56:37;;;;;;;17.23;3.95;;;12.10;99.90;;;;;;4999379;28;20056;-56
2023/03/17 01:59:04;;;;;;;11.02;3.75;;;12.20;99.90;;;;;;4997777;28;20082;-56
2023/03/17 02:01:34;;;;;;;15.95;3.45;;;12.20;99.90;;;;;;5010384;28;20059;-55
2023/03/17 02:04:01;;;;;;;12.27;3.28;;;12.20;99.90;;;;;;4998357;28;20048;-58
2023/03/17 02:06:28;;;;;;;11.27;3.90;;;12.20;99.90;;;;;;5009084;28;20128;-57
2023/03/17 02:08:55;;;;;;;11.00;3.78;;;12.20;99.90;;;;;;4999385;28;20042;-57
2023/03/17 02:11:22;;;;;;;22.13;6.00;;;12.20;99.90;;;;;;5005397;28;20571;-56
2023/03/17 02:13:49;;;;;;;9.75;3.42;;;12.20;99.90;;;;;;5018906;28;20509;-58
2023/03/17 02:16:16;;;;;;;10.95;3.97;;;12.20;99.90;;;;;;5021974;28;20586;-58
2023/03/17 02:18:43;;;;;;;12.82;3.85;;;12.20;99.90;;;;;;5019684;28;20125;-58
2023/03/17 02:21:31;;;;;;;13.68;3.03;;;12.20;99.90;;;;;;5019962;28;20136;-58
2023/03/17 02:24:04;;;;;;;12.13;3.65;;;12.20;99.90;;;;;;5019435;28;20041;-57
2023/03/17 02:26:32;;;;;;;17.33;3.85;;;12.20;99.90;;;;;;5003603;28;20133;-58
2023/03/17 02:28:59;;;;;;;12.38;3.80;;;12.20;99.90;;;;;;4988341;28;20466;-57
2023/03/17 02:31:25;;;;;;;8.07;2.92;;;12.20;99.90;;;;;;5029154;28;20049;-57
2023/03/17 02:33:52;;;;;;;13.30;3.50;;;12.20;99.90;;;;;;5023831;28;20037;-57
2023/03/17 02:36:20;;;;;;;14.73;3.88;;;12.20;99.90;;;;;;5027177;28;20124;-58
2023/03/17 02:38:47;;;;;;;10.38;3.38;;;12.20;99.90;;;;;;5008028;28;20090;-57
2023/03/17 02:41:14;;;;;;;12.18;4.38;;;12.20;99.90;;;;;;4991791;28;20145;-68
2023/03/17 02:43:41;;;;;;;14.88;4.03;;;12.30;99.90;;;;;;5026571;28;20477;-57
2023/03/17 02:46:08;;;;;;;12.77;3.47;;;12.20;99.90;;;;;;5024537;28;20547;-57
2023/03/17 02:48:35;;;;;;;10.35;4.55;;;12.30;99.90;;;;;;5026355;28;20073;-57
2023/03/17 02:51:02;;;;;;;12.57;3.28;;;12.30;99.90;;;;;;5006624;28;20049;-58
2023/03/17 02:53:30;;;;;;;12.45;3.28;;;12.30;99.90;;;;;;5009036;28;20042;-61
2023/03/17 02:55:57;;;;;;;12.30;3.25;;;12.20;99.90;;;;;;5018074;28;20098;-58
2023/03/17 02:58:23;;;;;;;8.48;3.00;;;12.30;99.90;;;;;;5027436;28;20064;-57
2023/03/17 03:00:50;;;;;;;10.98;3.35;;;12.20;99.90;;;;;;5021691;28;20100;-57
2023/03/17 03:03:17;;;;;;;10.57;4.25;;;12.20;99.90;;;;;;5028895;28;20051;-58
2023/03/17 03:05:44;;;;;;;10.30;2.88;;;12.30;99.90;;;;;;5000393;28;20050;-57
2023/03/17 03:08:11;;;;;;;9.85;3.40;;;12.20;99.90;;;;;;5024066;28;20046;-57
2023/03/17 03:10:37;;;;;;;10.95;3.00;;;12.30;99.90;;;;;;5020693;28;20038;-58
2023/03/17 03:13:04;;;;;;;6.13;3.45;;;12.20;99.90;;;;;;5029012;28;20046;-57
2023/03/17 03:15:31;;;;;;;7.05;2.80;;;12.20;99.90;;;;;;5020862;28;20242;-57
2023/03/17 03:17:57;;;;;;;8.85;3.63;;;12.20;99.90;;;;;;5018145;28;20041;-58
2023/03/17 03:20:24;;;;;;;9.35;2.78;;;12.20;99.90;;;;;;5023053;28;20073;-57
2023/03/17 03:22:51;;;;;;;10.85;3.42;;;12.20;99.90;;;;;;5027499;28;20132;-58
2023/03/17 03:25:18;;;;;;;11.38;3.50;;;12.20;99.90;;;;;;5024674;28;20053;-58
2023/03/17 03:27:45;;;;;;;9.27;3.13;;;12.20;99.90;;;;;;4999308;28;20069;-58
2023/03/17 03:30:11;;;;;;;7.07;3.65;;;12.20;99.90;;;;;;5014327;28;20050;-57
2023/03/17 03:32:38;;;;;;;10.00;4.63;;;12.20;99.90;;;;;;5004101;28;20515;-57
2023/03/17 03:35:05;;;;;;;13.13;4.00;;;12.20;99.90;;;;;;5011124;28;20489;-57
2023/03/17 03:37:32;;;;;;;13.13;4.32;;;12.20;99.90;;;;;;5022186;28;20128;-56
2023/03/17 03:39:59;;;;;;;13.20;4.80;;;12.20;99.90;;;;;;5026925;28;20136;-56
2023/03/17 03:42:26;;;;;;;11.65;4.03;;;12.20;99.90;;;;;;5020634;28;20087;-59
2023/03/17 03:44:52;;;;;;;15.73;4.40;;;12.20;99.90;;;;;;5011006;28;20057;-57
2023/03/17 03:47:19;;;;;;;9.95;4.28;;;12.20;99.90;;;;;;5019971;28;20047;-57
2023/03/17 03:49:46;;;;;;;10.27;4.82;;;12.20;99.90;;;;;;5013550;28;20045;-58
2023/03/17 03:52:12;;;;;;;10.90;4.35;;;12.20;99.90;;;;;;5019980;28;20045;-58
2023/03/17 03:54:39;;;;;;;14.65;5.68;;;12.20;99.90;;;;;;5025299;28;20049;-55
2023/03/17 03:57:06;;;;;;;15.68;3.88;;;12.20;99.90;;;;;;5018606;28;20046;-57
2023/03/17 03:59:33;;;;;;;10.00;4.18;;;12.20;99.90;;;;;;5023845;28;20140;-55
2023/03/17 04:02:00;;;;;;;10.27;4.60;;;12.20;99.90;;;;;;5020061;28;20044;-57
2023/03/17 04:04:26;;;;;;;10.85;4.75;;;12.20;99.90;;;;;;5016493;28;20295;-57
2023/03/17 04:06:53;;;;;;;9.15;4.40;;;12.20;99.90;;;;;;5021065;28;20532;-57
2023/03/17 04:09:20;;;;;;;11.95;4.18;;;12.20;99.90;;;;;;5019310;28;20052;-58
2023/03/17 04:11:47;;;;;;;11.73;4.63;;;12.20;99.90;;;;;;4978285;28;20509;-57
2023/03/17 04:14:13;;;;;;;13.65;4.63;;;12.20;99.90;;;;;;5002668;28;20040;-58
2023/03/17 04:16:40;;;;;;;11.93;4.22;;;12.20;99.90;;;;;;5012455;28;20565;-54
2023/03/17 04:19:09;;;;;;;8.55;3.97;;;12.10;99.90;;;;;;5020860;28;20432;-54
2023/03/17 04:21:36;;;;;;;15.15;4.63;;;12.10;99.90;;;;;;5014450;28;20465;-54
2023/03/17 04:24:04;;;;;;;12.85;4.47;;;12.20;99.90;;;;;;5012450;28;20050;-55
2023/03/17 04:26:31;;;;;;;12.77;4.32;;;12.20;99.90;;;;;;5014463;28;20045;-57
2023/03/17 04:28:57;;;;;;;10.07;4.10;;;12.20;99.90;;;;;;5024059;28;20129;-57
2023/03/17 04:31:24;;;;;;;11.88;4.40;;;12.20;99.90;;;;;;5016833;28;20041;-57
2023/03/17 04:33:51;;;;;;;14.43;3.88;;;12.20;99.90;;;;;;5014246;28;20508;-57
2023/03/17 04:36:22;;;;;;;14.98;4.93;;;12.20;99.90;;;;;;5026108;28;20128;-56
2023/03/17 04:38:48;;;;;;;10.73;3.45;;;12.10;99.90;;;;;;5019231;28;20057;-57
2023/03/17 04:41:15;;;;;;;10.93;3.72;;;12.10;99.90;;;;;;5007617;28;20304;-56
2023/03/17 04:43:42;;;;;;;7.68;3.42;;;12.10;99.90;;;;;;5023894;28;20050;-56
2023/03/17 04:46:09;;;;;;;11.38;4.43;;;12.10;99.90;;;;;;5025340;28;20045;-57
2023/03/17 04:48:36;;;;;;;7.18;3.60;;;12.10;99.90;;;;;;5024082;28;20072;-58
2023/03/17 04:51:03;;;;;;;7.38;3.58;;;12.10;99.90;;;;;;5008927;28;20051;-58
2023/03/17 04:53:30;;;;;;;10.18;4.03;;;12.10;99.90;;;;;;5023766;28;20054;-57
2023/03/17 04:55:57;;;;;;;6.13;2.80;;;12.10;99.90;;;;;;5027190;28;20115;-58
2023/03/17 04:58:24;;;;;;;5.07;3.03;;;12.10;99.90;;;;;;5018800;28;20042;-55
2023/03/17 05:00:57;;;;;;;5.13;2.67;;;12.00;99.90;;;;;;5026879;28;20088;-55
2023/03/17 05:03:24;;;;;;;3.58;2.67;;;12.00;99.90;;;;;;5023534;28;20042;-56
2023/03/17 05:05:53;;;;;;;8.20;3.92;;;11.90;99.90;;;;;;5018235;28;20045;-56
2023/03/17 05:08:20;;;;;;;4.95;2.80;;;11.90;99.90;;;;;;5019236;28;20116;-57
2023/03/17 05:10:46;;;;;;;7.65;3.25;;;11.90;99.90;;;;;;5023507;28;20049;-57
2023/03/17 05:13:14;;;;;;;4.13;2.78;;;11.90;99.90;;;;;;5024724;28;20045;-57
2023/03/17 05:15:51;;;;;;;5.18;2.97;;;11.90;99.90;;;;;;5016401;28;20062;-55
2023/03/17 05:18:18;;;;;;;8.38;3.65;;;11.90;99.90;;;;;;5004152;28;20521;-57
2023/03/17 05:20:45;;;;;;;7.32;4.10;;;11.80;99.90;;;;;;5017737;28;20053;-57
2023/03/17 05:23:12;;;;;;;5.45;3.42;;;11.80;99.90;;;;;;5029544;28;20119;-55
2023/03/17 05:25:40;;;;;;;4.63;3.35;;;11.70;99.90;;;;;;5004623;28;20153;-57
2023/03/17 05:28:07;;;;;;;6.15;4.47;;;11.70;99.90;;;;;;5029267;28;20584;-57
2023/03/17 05:30:35;;;;;;;9.57;4.32;;;11.70;99.90;;;;;;5021838;28;20146;-57
2023/03/17 05:33:02;;;;;;;7.35;4.40;;;11.70;99.90;;;;;;5016722;28;20073;-57
2023/03/17 05:35:29;;;;;;;7.97;4.95;;;11.70;99.90;;;;;;5019353;28;20064;-57
2023/03/17 05:37:56;;;;;;;8.10;5.45;;;11.70;99.90;;;;;;5009796;28;20080;-57
2023/03/17 05:40:23;;;;;;;7.95;5.55;;;11.70;99.90;;;;;;5017492;28;20483;-57
2023/03/17 05:42:50;;;;;;;7.97;5.10;;;11.70;99.90;;;;;;5020306;28;20116;-55
2023/03/17 05:45:17;;;;;;;8.75;6.32;;;11.60;99.90;;;;;;5015810;28;20180;-58
2023/03/17 05:47:44;;;;;;;7.13;5.07;;;11.70;99.90;;;;;;5022640;28;20398;-57
2023/03/17 05:50:11;;;;;;;10.30;6.22;;;11.70;99.90;;;;;;4996374;28;20048;-57
2023/03/17 05:52:38;;;;;;;9.77;6.65;;;11.70;99.90;;;;;;5021216;28;20045;-57
2023/03/17 05:55:06;;;;;;;8.57;6.18;;;11.60;99.90;;;;;;5013476;28;20467;-57
2023/03/17 05:57:33;;;;;;;10.93;7.10;;;11.70;99.90;;;;;;5027892;28;20049;-57
2023/03/17 06:00:04;;;;;;;10.85;6.45;;;11.70;99.90;;;;;;5026483;28;20132;-57
2023/03/17 06:02:31;;;;;;;9.27;6.07;;;11.70;99.90;;;;;;5016798;28;20099;-58
2023/03/17 06:04:58;;;;;;;8.40;6.13;;;11.70;99.90;;;;;;5028077;28;20058;-58
2023/03/17 06:07:25;;;;;;;10.10;6.60;;;11.70;99.90;;;;;;5018158;28;20056;-58
2023/03/17 06:09:54;;;;;;;9.10;7.22;;;11.70;99.90;;;;;;5028604;28;20122;-57
2023/03/17 06:12:21;;;;;;;11.80;7.68;;;11.60;99.90;;;;;;5018762;28;20045;-56
2023/03/17 06:14:48;;;;;;;12.63;8.13;;;11.60;99.90;;;;;;5010003;28;20133;-57
2023/03/17 06:17:14;;;;;;;10.52;7.10;;;11.60;99.90;;;;;;5020021;28;20072;-56
2023/03/17 06:19:41;;;;;;;11.52;7.20;;;11.60;99.90;;;;;;5025355;28;20037;-57
2023/03/17 06:22:08;;;;;;;12.00;8.00;;;11.60;99.90;;;;;;5022256;28;20052;-58
2023/03/17 06:24:35;;;;;;;11.82;7.78;;;11.60;99.90;;;;;;5023356;28;20049;-57
2023/03/17 06:27:02;;;;;;;11.93;7.60;;;11.60;99.90;;;;;;5020563;28;20053;-58
2023/03/17 06:29:29;;;;;;;12.88;7.38;;;11.60;99.90;;;;;;5030013;28;20069;-59
2023/03/17 06:31:56;;;;;;;8.70;6.20;;;11.60;99.90;;;;;;5024872;28;20049;-57
2023/03/17 06:34:34;;;;;;;11.90;7.55;;;11.70;99.90;;;;;;5029557;28;20052;-57
2023/03/17 06:37:01;;;;;;;8.95;5.93;;;11.70;99.90;;;;;;5021501;28;20145;-58
2023/03/17 06:39:29;;;;;;;9.77;6.85;;;11.60;99.90;;;;;;5018521;28;20049;-58
2023/03/17 06:41:55;;;;;;;11.80;6.82;;;11.70;99.90;;;;;;5021723;28;20076;-57
2023/03/17 06:44:22;;;;;;;11.82;8.45;;;11.70;99.90;;;;;;5020503;28;20054;-56
2023/03/17 06:46:49;;;;;;;13.43;7.80;;;11.70;99.90;;;;;;5022200;28;20525;-57
2023/03/17 06:49:16;;;;;;;9.35;7.03;;;11.70;99.90;;;;;;5022459;28;20042;-57
2023/03/17 06:51:43;;;;;;;7.93;6.47;;;11.60;99.90;;;;;;5016610;28;20045;-58
2023/03/17 06:54:11;;;;;;;8.95;6.50;;;11.60;99.90;;;;;;5024041;28;20495;-56
2023/03/17 06:56:37;;;;;;;7.90;6.30;;;11.60;99.90;;;;;;5016554;28;20046;-58
2023/03/17 06:59:04;;;;;;;10.00;6.13;;;11.60;99.90;;;;;;5025405;28;20081;-57
2023/03/17 07:01:31;;;;;;;9.25;5.55;;;11.60;99.90;;;;;;5002456;28;20045;-60
2023/03/17 07:03:58;;;;;;;11.55;7.15;;;11.70;99.90;;;;;;5007972;28;20073;-59
2023/03/17 07:06:25;;;;;;;9.30;6.38;;;11.60;99.90;;;;;;5015807;28;20085;-58
2023/03/17 07:08:51;;;;;;;10.95;6.80;;;11.60;99.90;;;;;;5002284;28;20124;-58
2023/03/17 07:11:18;;;;;;;12.52;7.70;;;11.60;99.90;;;;;;5022498;28;20053;-60
2023/03/17 07:13:45;;;;;;;10.25;6.78;;;11.60;99.90;;;;;;5018401;28;20088;-59
2023/03/17 07:16:12;;;;;;;11.80;6.93;;;11.70;99.90;;;;;;5019617;28;20125;-59
2023/03/17 07:18:39;;;;;;;10.15;6.40;;;11.70;99.90;;;;;;5020291;28;20045;-55
2023/03/17 07:21:06;;;;;;;7.95;5.80;;;11.70;99.90;;;;;;5021098;28;20140;-57
2023/03/17 07:23:33;;;;;;;13.73;6.68;;;11.70;99.90;;;;;;5019752;28;20049;-58
2023/03/17 07:26:01;;;;;;;11.52;6.53;;;11.80;99.90;;;;;;5019793;28;20124;-58
2023/03/17 07:28:28;;;;;;;11.85;6.45;;;11.80;99.90;;;;;;5019151;28;20057;-57
2023/03/17 07:30:56;;;;;;;14.40;7.00;;;11.80;99.90;;;;;;5018399;28;20489;-56
2023/03/17 07:33:24;;;;;;;10.63;6.88;;;11.90;99.90;;;;;;5020241;28;20042;-56
2023/03/17 07:35:51;;;;;;;8.23;5.57;;;11.90;99.90;;;;;;5022100;28;20140;-57
2023/03/17 07:38:18;;;;;;;9.38;6.00;;;11.90;99.90;;;;;;5018298;28;20470;-55
2023/03/17 07:40:46;;;;;;;11.75;6.70;;;11.80;99.90;;;;;;5020218;28;20492;-57
2023/03/17 07:43:14;;;;;;;9.32;6.00;;;11.90;99.90;;;;;;5022020;28;20041;-58
2023/03/17 07:45:42;;;;;;;10.40;6.35;;;11.90;99.90;;;;;;5012316;28;20046;-56
2023/03/17 07:48:09;;;;;;;8.13;6.20;;;12.00;99.90;;;;;;5008130;28;20104;-55
2023/03/17 07:50:36;;;;;;;12.65;6.78;;;12.00;99.90;;;;;;5012463;28;20124;-57
2023/03/17 07:53:03;;;;;;;12.27;5.88;;;12.00;99.90;;;;;;5023816;28;20049;-57
2023/03/17 07:55:31;;;;;;;9.82;6.18;;;12.00;99.90;;;;;;5016725;28;20045;-59
2023/03/17 07:57:58;;;;;;;8.55;5.13;;;12.00;99.90;;;;;;5024048;28;20056;-56
2023/03/17 08:00:26;;;;;;;7.40;4.72;;;12.00;99.90;;;;;;5019198;28;20084;-56
2023/03/17 08:02:53;;;;;;;8.05;5.38;;;11.90;99.90;;;;;;5027016;28;20053;-57
2023/03/17 08:05:35;;;;;;;9.40;5.95;;;12.00;99.90;;;;;;5019428;28;20504;-56
2023/03/17 08:08:04;;;;;;;8.27;5.35;;;12.00;99.90;;;;;;5015079;28;20104;-56
2023/03/17 08:10:31;;;;;;;6.55;4.97;;;12.00;99.90;;;;;;5014053;28;20048;-56
2023/03/17 08:12:58;;;;;;;8.15;5.40;;;11.90;99.90;;;;;;5026599;28;20140;-57
2023/03/17 08:15:25;;;;;;;8.98;6.38;;;11.80;99.90;;;;;;5020259;28;20049;-58
2023/03/17 08:17:52;;;;;;;9.43;5.05;;;11.80;99.90;;;;;;5017963;28;20448;-57
2023/03/17 08:20:20;;;;;;;7.93;4.90;;;11.70;99.90;;;;;;5022286;28;20092;-57
2023/03/17 08:22:47;;;;;;;8.27;4.90;;;11.80;99.90;;;;;;5014827;28;20056;-55
2023/03/17 08:25:14;;;;;;;8.50;4.78;;;11.80;99.90;;;;;;5010456;28;20096;-57
2023/03/17 08:27:41;;;;;;;6.88;4.50;;;11.70;99.90;;;;;;5015073;28;20107;-58
2023/03/17 08:30:08;;;;;;;7.63;4.65;;;11.80;99.90;;;;;;5023926;28;20049;-57
2023/03/17 08:32:35;;;;;;;7.35;4.22;;;11.80;99.90;;;;;;5023722;28;20056;-58
2023/03/17 08:35:05;;;;;;;7.53;4.55;;;11.80;99.90;;;;;;5024214;28;20092;-55
2023/03/17 08:37:32;;;;;;;5.28;3.63;;;11.90;99.90;;;;;;5012209;28;20054;-57
2023/03/17 08:39:59;;;;;;;7.57;3.92;;;12.00;99.90;;;;;;5008981;28;20430;-55
2023/03/17 08:42:26;;;;;;;7.10;4.68;;;12.00;99.90;;;;;;5013972;28;20061;-63
2023/03/17 08:44:53;;;;;;;6.03;3.67;;;12.00;99.90;;;;;;5006543;28;20084;-57
2023/03/17 08:47:20;;;;;;;6.07;4.28;;;12.10;99.90;;;;;;5016184;28;20081;-56
2023/03/17 08:49:47;;;;;;;5.38;3.42;;;12.00;99.90;;;;;;5009198;28;20046;-55
2023/03/17 08:52:15;;;;;;;7.07;2.80;;;12.00;99.90;;;;;;5018077;28;20165;-56
2023/03/17 08:54:42;;;;;;;4.50;3.05;;;12.00;99.90;;;;;;5010605;28;20045;-59
2023/03/17 08:57:08;;;;;;;3.92;2.97;;;11.90;99.90;;;;;;5015351;28;20060;-58
2023/03/17 08:59:36;;;;;;;7.05;3.60;;;11.90;99.90;;;;;;5022295;28;20637;-57
2023/03/17 09:02:02;;;;;;;5.97;4.00;;;11.90;99.90;;;;;;5018007;28;20404;-56
2023/03/17 09:04:29;;;;;;;6.82;3.35;;;11.90;99.90;;;;;;5025247;28;20049;-55
2023/03/17 09:06:56;;;;;;;4.32;2.97;;;12.00;99.90;;;;;;5019353;28;20045;-55
2023/03/17 09:09:34;;;;;;;3.88;2.15;;;11.90;99.90;;;;;;5018070;28;20053;-51
2023/03/17 09:12:03;;;;;;;4.53;2.78;;;11.90;99.90;;;;;;4995096;28;20103;-55
2023/03/17 09:14:30;;;;;;;5.35;2.90;;;11.90;99.90;;;;;;5015232;28;20075;-56
2023/03/17 09:17:08;;;;;;;6.55;2.55;;;11.90;99.90;;;;;;5017321;28;20054;-56
2023/03/17 09:19:35;;;;;;;4.00;2.17;;;12.00;99.90;;;;;;5011984;28;20056;-53
2023/03/17 09:22:02;;;;;;;2.65;1.80;;;12.00;99.90;;;;;;5025621;28;20118;-56
2023/03/17 09:24:29;;;;;;;9.45;2.40;;;12.00;99.90;;;;;;5019434;28;20064;-56
2023/03/17 09:26:58;;;;;;;3.58;1.95;;;12.10;99.90;;;;;;5012521;28;20089;-57
2023/03/17 09:29:26;;;;;;;2.58;1.98;;;12.10;99.90;;;;;;5014338;28;20913;-56
2023/03/17 09:31:55;;;;;;;7.50;2.72;;;12.00;99.90;;;;;;5025454;28;20053;-56
2023/03/17 09:34:24;;;;;;;3.60;2.13;;;12.10;99.90;;;;;;5011758;28;20064;-56
2023/03/17 09:36:52;;;;;;;3.58;2.25;;;12.00;99.90;;;;;;5021849;28;20168;-56
2023/03/17 09:39:21;;;;;;;5.30;2.53;;;12.00;99.90;;;;;;5002193;28;20041;-56
2023/03/17 09:42:00;;;;;;;5.00;2.60;;;12.10;99.90;;;;;;5016565;28;20038;-54
2023/03/17 09:44:42;;;;;;;13.18;5.70;;;12.10;99.90;;;;;;4982524;28;20129;-53
2023/03/17 09:47:33;;;;;;;3.05;2.33;;;12.10;99.90;;;;;;5026635;28;20052;-56
2023/03/17 09:50:01;;;;;;;5.07;2.15;;;12.10;99.90;;;;;;5024597;28;20075;-56
2023/03/17 09:52:30;;;;;;;3.40;2.30;;;12.20;99.90;;;;;;5008677;28;20132;-55
2023/03/17 09:54:57;;;;;;;3.33;2.38;;;12.20;99.90;;;;;;5008456;28;20052;-56
2023/03/17 09:57:36;;;;;;;4.38;2.08;;;12.20;99.90;;;;;;5003156;28;20064;-56
2023/03/17 10:00:17;;;;;;;4.32;2.40;;;12.30;99.90;;;;;;5004513;28;20049;-55
2023/03/17 10:02:45;;;;;;;3.88;2.17;;;12.40;99.90;;;;;;5025912;28;20144;-54
2023/03/17 10:05:20;;;;;;;3.25;1.75;;;12.50;99.90;;;;;;5005486;28;20081;-55
2023/03/17 10:08:25;;;;;;;4.18;1.48;;;12.60;99.90;;;;;;5010121;28;20108;-54
2023/03/17 10:11:11;;;;;;;2.47;1.20;;;12.60;99.90;;;;;;5016731;28;20056;-57
2023/03/17 10:13:56;;;;;;;2.88;1.27;;;12.60;99.90;;;;;;4991036;28;20127;-53
2023/03/17 10:16:29;;;;;;;1.92;1.50;;;12.60;99.90;;;;;;5010595;28;20061;-56
2023/03/17 10:18:59;;;;;;;2.05;1.10;;;12.60;99.90;;;;;;5008930;28;20041;-55
2023/03/17 10:21:28;;;;;;;2.00;1.17;;;12.60;99.90;;;;;;5007797;28;20132;-55
2023/03/17 10:23:56;;;;;;;2.83;1.35;;;12.60;99.90;;;;;;5008384;28;20120;-53
2023/03/17 10:26:30;;;;;;;3.38;1.55;;;12.60;99.90;;;;;;5004424;28;20060;-55
2023/03/17 10:28:58;;;;;;;5.00;1.70;;;12.60;99.90;;;;;;4987155;28;20045;-58
2023/03/17 10:31:33;;;;;;;3.65;1.65;;;12.70;99.90;;;;;;5018786;28;20443;-56
2023/03/17 10:34:29;;;;;;;3.40;1.23;;;12.70;99.90;;;;;;5023458;28;20736;-51
2023/03/17 10:37:00;;;;;;;3.33;1.60;;;12.70;99.90;;;;;;5020942;28;20059;-56
2023/03/17 10:39:28;;;;;;;1.75;0.90;;;12.60;99.90;;;;;;5011699;28;20041;-57
2023/03/17 10:42:02;;;;;;;4.68;1.40;;;12.60;99.90;;;;;;5022578;28;20127;-56
2023/03/17 10:44:38;;;;;;;5.32;1.33;;;12.60;99.90;;;;;;5015715;28;20074;-56
2023/03/17 10:47:05;;;;;;;7.75;1.55;;;12.60;99.90;;;;;;5024665;28;20085;-56
2023/03/17 10:49:35;;;;;;;4.63;1.33;;;12.60;99.90;;;;;;5025331;28;20105;-57
2023/03/17 10:52:06;;;;;;;3.95;1.08;;;12.60;99.90;;;;;;5023073;28;20049;-52
2023/03/17 10:54:34;;;;;;;4.03;0.90;;;12.60;99.90;;;;;;5004239;28;20072;-58
2023/03/17 10:57:06;;;;;;;2.17;1.05;;;12.60;99.90;;;;;;5013199;28;20050;-55
2023/03/17 10:59:37;;;;;;;5.07;1.67;;;12.60;99.90;;;;;;5011354;28;20041;-58
2023/03/17 11:02:35;;;;;;;3.23;1.20;;;12.60;99.90;;;;;;5018096;28;20577;-56
2023/03/17 11:05:04;;;;;;;5.50;1.40;;;12.60;99.90;;;;;;4998182;28;20299;-58
2023/03/17 11:07:37;;;;;;;4.85;2.15;;;12.50;99.90;;;;;;5002571;28;20057;-57
2023/03/17 11:10:22;;;;;;;6.53;2.20;;;12.50;99.90;;;;;;5010926;28;20107;-58
2023/03/17 11:12:57;;;;;;;3.63;1.75;;;12.50;99.90;;;;;;5022564;28;20145;-56
2023/03/17 11:15:24;;;;;;;4.97;2.60;;;12.40;99.90;;;;;;4998596;28;20085;-58
2023/03/17 11:17:58;;;;;;;3.22;1.83;;;12.40;99.90;;;;;;5002594;28;20079;-56
2023/03/17 11:20:34;;;;;;;6.20;2.25;;;12.40;99.90;;;;;;4990769;28;20124;-56
2023/03/17 11:23:31;;;;;;;4.15;3.05;;;12.40;99.90;;;;;;5002798;28;20053;-57
2023/03/17 11:26:29;;;;;;;5.93;2.30;;;12.40;99.90;;;;;;5007606;28;20046;-57
2023/03/17 11:29:05;;;;;;;3.03;1.90;;;12.40;99.90;;;;;;5000224;28;20474;-57
2023/03/17 11:31:35;;;;;;;7.30;2.60;;;12.40;99.90;;;;;;5004186;28;20081;-56
2023/03/17 11:34:07;;;;;;;4.88;2.00;;;12.40;99.90;;;;;;4999690;28;20073;-57
2023/03/17 11:36:56;;;;;;;7.15;2.10;;;12.40;99.90;;;;;;4989744;28;20111;-56
2023/03/17 11:39:26;;;;;;;4.57;1.90;;;12.40;99.90;;;;;;4999449;28;20050;-56
2023/03/17 11:42:21;;;;;;;5.85;2.40;;;12.40;99.90;;;;;;4990903;28;20084;-55
2023/03/17 11:44:56;;;;;;;6.50;2.42;;;12.50;99.90;;;;;;4994031;28;20077;-55
2023/03/17 11:47:27;;;;;;;4.20;1.88;;;12.50;99.90;;;;;;5001494;28;20100;-53
2023/03/17 11:50:32;;;;;;;4.45;1.98;;;12.40;99.90;;;;;;5006212;28;20042;-56
2023/03/17 11:53:07;;;;;;;7.68;2.13;;;12.40;99.90;;;;;;4994886;28;20513;-53
2023/03/17 11:55:54;;;;;;;3.25;1.63;;;12.30;99.90;;;;;;5001241;28;20050;-56
2023/03/17 11:58:35;;;;;;;4.97;2.38;;;12.30;99.90;;;;;;4999973;28;20042;-57
2023/03/17 12:01:08;;;;;;;7.10;2.40;;;12.30;99.90;;;;;;5000222;28;20081;-57
2023/03/17 12:03:39;;;;;;;6.43;2.25;;;12.30;99.90;;;;;;4994935;28;20101;-56
2023/03/17 12:06:42;;;;;;;7.53;2.25;;;12.40;99.90;;;;;;4996450;28;20128;-55
2023/03/17 12:09:23;;;;;;;6.05;2.58;;;12.40;99.90;;;;;;5008622;28;20108;-56
2023/03/17 12:11:50;;;;;;;8.43;3.80;;;12.40;99.90;;;;;;4995331;28;20515;-56
2023/03/17 12:14:47;;;;;;;8.23;2.53;;;12.40;99.90;;;;;;4992594;28;20060;-57
2023/03/17 12:17:22;;;;;;;5.82;2.30;;;12.30;99.90;;;;;;4998516;28;20050;-56
2023/03/17 12:20:05;;;;;;;11.57;2.97;;;12.30;99.90;;;;;;5006372;28;20057;-57
2023/03/17 12:23:06;;;;;;;4.95;2.63;;;12.30;99.90;;;;;;5000903;28;20058;-55
2023/03/17 12:25:39;;;;;;;7.30;3.03;;;12.30;99.90;;;;;;5014551;28;20137;-56
2023/03/17 12:28:21;;;;;;;6.40;2.50;;;12.30;99.90;;;;;;5001924;28;20104;-53
2023/03/17 12:30:56;;;;;;;4.63;2.28;;;12.30;99.90;;;;;;5001030;28;20046;-55
2023/03/17 12:33:39;;;;;;;5.85;2.78;;;12.40;99.90;;;;;;5002809;28;20068;-52
2023/03/17 12:36:06;;;;;;;3.53;2.20;;;12.40;99.90;;;;;;5003351;28;20054;-55
2023/03/17 12:39:00;;;;;;;11.02;3.67;;;12.30;99.90;;;;;;4992114;28;20500;-55
2023/03/17 12:41:52;;;;;;;6.97;2.15;;;12.30;99.90;;;;;;5002674;28;20084;-54
2023/03/17 12:44:40;;;;;;;7.05;1.92;;;12.30;99.90;;;;;;4998541;28;20046;-57
2023/03/17 12:47:28;;;;;;;5.95;2.25;;;12.30;99.90;;;;;;4980058;28;20054;-56
2023/03/17 12:50:08;;;;;;;4.07;2.30;;;12.30;99.90;;;;;;4995671;28;20050;-57
2023/03/17 12:52:40;;;;;;;6.35;1.70;;;12.30;99.90;;;;;;5012960;28;20061;-57
2023/03/17 12:55:13;;;;;;;6.60;2.13;;;12.40;99.90;;;;;;4994759;28;20088;-54
2023/03/17 12:57:41;;;;;;;4.35;2.10;;;12.30;99.90;;;;;;4995685;28;20562;-57
2023/03/17 13:00:24;;;;;;;9.85;2.10;;;12.30;99.90;;;;;;4997800;28;20180;-57